sensor_id;sensor_type;location;lat;lon;timestamp;pressure;altitude;pressure_sealevel;temperature;humidity
6615;BME280;3343;42.896;23.912;2023-05-23T00:02:20;72966.72;;;-145.80;74.57
6615;BME280;3343;42.896;23.912;2023-05-23T00:04:47;72958.69;;;-145.80;73.83
6615;BME280;3343;42.896;23.912;2023-05-23T00:07:14;72966.72;;;-145.80;73.90
6615;BME280;3343;42.896;23.912;2023-05-23T00:09:42;72936.63;;;-145.80;73.77
6615;BME280;3343;42.896;23.912;2023-05-23T00:12:09;72948.66;;;-145.80;73.30
6615;BME280;3343;42.896;23.912;2023-05-23T00:14:36;72940.66;;;-145.80;73.08
6615;BME280;3343;42.896;23.912;2023-05-23T00:17:04;72938.66;;;-145.80;73.60
6615;BME280;3343;42.896;23.912;2023-05-23T00:19:32;72954.69;;;-145.80;73.56
6615;BME280;3343;42.896;23.912;2023-05-23T00:22:00;72932.63;;;-145.80;73.13
6615;BME280;3343;42.896;23.912;2023-05-23T00:24:27;72954.69;;;-145.80;72.88
6615;BME280;3343;42.896;23.912;2023-05-23T00:26:56;72924.59;;;-145.80;72.10
6615;BME280;3343;42.896;23.912;2023-05-23T00:29:23;72944.66;;;-145.80;71.96
6615;BME280;3343;42.896;23.912;2023-05-23T00:31:50;72940.66;;;-145.80;72.28
6615;BME280;3343;42.896;23.912;2023-05-23T00:34:17;73028.91;;;-145.80;73.62
6615;BME280;3343;42.896;23.912;2023-05-23T00:36:44;73036.91;;;-145.80;74.10
6615;BME280;3343;42.896;23.912;2023-05-23T00:39:12;73050.94;;;-145.80;74.42
6615;BME280;3343;42.896;23.912;2023-05-23T00:41:44;73024.88;;;-145.80;74.26
6615;BME280;3343;42.896;23.912;2023-05-23T00:44:12;72984.78;;;-145.80;73.80
6615;BME280;3343;42.896;23.912;2023-05-23T00:46:41;72958.69;;;-145.80;73.25
6615;BME280;3343;42.896;23.912;2023-05-23T00:49:09;72966.72;;;-145.80;73.11
6615;BME280;3343;42.896;23.912;2023-05-23T00:51:37;72960.69;;;-145.80;73.33
6615;BME280;3343;42.896;23.912;2023-05-23T00:54:05;72996.81;;;-145.80;72.87
6615;BME280;3343;42.896;23.912;2023-05-23T00:56:32;73012.84;;;-145.80;73.69
6615;BME280;3343;42.896;23.912;2023-05-23T00:58:59;73010.84;;;-145.80;73.68
6615;BME280;3343;42.896;23.912;2023-05-23T01:01:27;72976.75;;;-145.80;73.25
6615;BME280;3343;42.896;23.912;2023-05-23T01:03:54;73004.81;;;-145.80;72.58
6615;BME280;3343;42.896;23.912;2023-05-23T01:06:22;72996.81;;;-145.80;73.23
6615;BME280;3343;42.896;23.912;2023-05-23T01:08:49;72988.78;;;-145.80;73.14
6615;BME280;3343;42.896;23.912;2023-05-23T01:11:22;72938.66;;;-145.80;71.53
6615;BME280;3343;42.896;23.912;2023-05-23T01:13:58;72940.66;;;-145.80;71.46
6615;BME280;3343;42.896;23.912;2023-05-23T01:16:34;72936.63;;;-145.80;70.88
6615;BME280;3343;42.896;23.912;2023-05-23T01:19:13;72938.66;;;-145.80;70.45
6615;BME280;3343;42.896;23.912;2023-05-23T01:21:44;72950.69;;;-145.80;71.24
6615;BME280;3343;42.896;23.912;2023-05-23T01:24:35;72968.72;;;-145.80;71.41
6615;BME280;3343;42.896;23.912;2023-05-23T01:27:18;72964.72;;;-145.80;71.86
6615;BME280;3343;42.896;23.912;2023-05-23T01:29:53;72972.75;;;-145.80;71.89
6615;BME280;3343;42.896;23.912;2023-05-23T01:32:23;72984.78;;;-145.80;72.29
6615;BME280;3343;42.896;23.912;2023-05-23T01:34:52;72974.75;;;-145.80;71.94
6615;BME280;3343;42.896;23.912;2023-05-23T01:37:19;72994.81;;;-145.80;72.32
6615;BME280;3343;42.896;23.912;2023-05-23T01:39:46;72992.78;;;-145.80;72.00
6615;BME280;3343;42.896;23.912;2023-05-23T01:42:13;72998.81;;;-145.80;72.12
6615;BME280;3343;42.896;23.912;2023-05-23T01:44:42;73000.81;;;-145.80;72.83
6615;BME280;3343;42.896;23.912;2023-05-23T01:47:12;72996.81;;;-145.80;72.54
6615;BME280;3343;42.896;23.912;2023-05-23T01:49:39;72998.81;;;-145.80;72.23
6615;BME280;3343;42.896;23.912;2023-05-23T01:52:09;73008.84;;;-145.80;72.15
6615;BME280;3343;42.896;23.912;2023-05-23T01:54:37;73022.88;;;-145.80;72.36
6615;BME280;3343;42.896;23.912;2023-05-23T01:57:07;73034.91;;;-145.80;72.76
6615;BME280;3343;42.896;23.912;2023-05-23T01:59:34;73018.88;;;-145.80;71.99
6615;BME280;3343;42.896;23.912;2023-05-23T02:02:01;73036.91;;;-145.80;71.94
6615;BME280;3343;42.896;23.912;2023-05-23T02:04:29;73052.97;;;-145.80;72.55
6615;BME280;3343;42.896;23.912;2023-05-23T02:06:56;73060.97;;;-145.80;73.28
6615;BME280;3343;42.896;23.912;2023-05-23T02:09:23;73048.94;;;-145.80;73.07
6615;BME280;3343;42.896;23.912;2023-05-23T02:11:50;73046.94;;;-145.80;72.89
6615;BME280;3343;42.896;23.912;2023-05-23T02:14:17;73056.97;;;-145.80;73.37
6615;BME280;3343;42.896;23.912;2023-05-23T02:16:44;73054.97;;;-145.80;72.93
6615;BME280;3343;42.896;23.912;2023-05-23T02:19:11;73038.91;;;-145.80;72.70
6615;BME280;3343;42.896;23.912;2023-05-23T02:21:39;73010.84;;;-145.80;72.10
6615;BME280;3343;42.896;23.912;2023-05-23T02:24:05;73048.94;;;-145.80;71.96
6615;BME280;3343;42.896;23.912;2023-05-23T02:26:32;73073.00;;;-145.80;72.41
6615;BME280;3343;42.896;23.912;2023-05-23T02:28:59;73101.09;;;-145.80;72.96
6615;BME280;3343;42.896;23.912;2023-05-23T02:31:26;73141.19;;;-145.80;73.94
6615;BME280;3343;42.896;23.912;2023-05-23T02:33:53;73119.13;;;-145.80;73.80
6615;BME280;3343;42.896;23.912;2023-05-23T02:36:20;73141.19;;;-145.80;73.95
6615;BME280;3343;42.896;23.912;2023-05-23T02:38:48;73173.28;;;-145.80;75.35
6615;BME280;3343;42.896;23.912;2023-05-23T02:41:15;73217.41;;;-145.80;76.34
6615;BME280;3343;42.896;23.912;2023-05-23T02:43:44;73183.31;;;-145.80;76.37
6615;BME280;3343;42.896;23.912;2023-05-23T02:46:11;73175.31;;;-145.80;75.65
6615;BME280;3343;42.896;23.912;2023-05-23T02:48:38;73189.34;;;-145.80;76.08
6615;BME280;3343;42.896;23.912;2023-05-23T02:51:05;73183.31;;;-145.80;76.61
6615;BME280;3343;42.896;23.912;2023-05-23T02:53:32;73125.16;;;-145.80;75.07
6615;BME280;3343;42.896;23.912;2023-05-23T02:56:00;73095.06;;;-145.80;74.20
6615;BME280;3343;42.896;23.912;2023-05-23T02:58:26;73121.16;;;-145.80;74.88
6615;BME280;3343;42.896;23.912;2023-05-23T03:00:54;73097.09;;;-145.80;74.71
6615;BME280;3343;42.896;23.912;2023-05-23T03:03:21;73089.06;;;-145.80;74.45
6615;BME280;3343;42.896;23.912;2023-05-23T03:05:48;73054.97;;;-145.80;73.42
6615;BME280;3343;42.896;23.912;2023-05-23T03:08:15;73052.97;;;-145.80;72.70
6615;BME280;3343;42.896;23.912;2023-05-23T03:10:42;73048.94;;;-145.80;72.41
6615;BME280;3343;42.896;23.912;2023-05-23T03:13:11;73028.91;;;-145.80;72.27
6615;BME280;3343;42.896;23.912;2023-05-23T03:15:38;73016.84;;;-145.80;71.86
6615;BME280;3343;42.896;23.912;2023-05-23T03:18:05;73091.06;;;-145.80;72.29
6615;BME280;3343;42.896;23.912;2023-05-23T03:20:32;73109.13;;;-145.80;73.16
6615;BME280;3343;42.896;23.912;2023-05-23T03:22:59;73113.13;;;-145.80;73.33
6615;BME280;3343;42.896;23.912;2023-05-23T03:25:25;73095.06;;;-145.80;73.28
6615;BME280;3343;42.896;23.912;2023-05-23T03:27:52;73069.00;;;-145.80;72.88
6615;BME280;3343;42.896;23.912;2023-05-23T03:30:20;73060.97;;;-145.80;72.91
6615;BME280;3343;42.896;23.912;2023-05-23T03:32:47;73065.00;;;-145.80;73.09
6615;BME280;3343;42.896;23.912;2023-05-23T03:35:14;73028.91;;;-145.80;72.66
6615;BME280;3343;42.896;23.912;2023-05-23T03:37:41;73010.84;;;-145.80;72.51
6615;BME280;3343;42.896;23.912;2023-05-23T03:40:08;72984.78;;;-145.80;72.32
6615;BME280;3343;42.896;23.912;2023-05-23T03:42:35;72944.66;;;-145.80;71.37
6615;BME280;3343;42.896;23.912;2023-05-23T03:45:03;72910.56;;;-145.80;69.95
6615;BME280;3343;42.896;23.912;2023-05-23T03:47:31;72944.66;;;-145.80;70.07
6615;BME280;3343;42.896;23.912;2023-05-23T03:49:58;73006.84;;;-145.80;71.09
6615;BME280;3343;42.896;23.912;2023-05-23T03:52:25;72952.69;;;-145.80;71.62
6615;BME280;3343;42.896;23.912;2023-05-23T03:54:53;72904.56;;;-145.80;70.96
6615;BME280;3343;42.896;23.912;2023-05-23T03:57:20;72910.56;;;-145.80;69.91
6615;BME280;3343;42.896;23.912;2023-05-23T03:59:47;72874.47;;;-145.80;70.17
6615;BME280;3343;42.896;23.912;2023-05-23T04:02:14;72840.38;;;-145.80;68.85
6615;BME280;3343;42.896;23.912;2023-05-23T04:04:42;72806.28;;;-145.80;68.46
6615;BME280;3343;42.896;23.912;2023-05-23T04:07:09;72822.34;;;-145.80;67.47
6615;BME280;3343;42.896;23.912;2023-05-23T04:09:36;72830.34;;;-145.80;67.29
6615;BME280;3343;42.896;23.912;2023-05-23T04:12:03;72806.28;;;-145.80;67.84
6615;BME280;3343;42.896;23.912;2023-05-23T04:14:30;72772.19;;;-145.80;67.41
6615;BME280;3343;42.896;23.912;2023-05-23T04:16:58;72784.22;;;-145.80;68.69
6615;BME280;3343;42.896;23.912;2023-05-23T04:19:25;72714.03;;;-145.80;68.09
6615;BME280;3343;42.896;23.912;2023-05-23T04:21:54;72635.84;;;-145.80;66.87
6615;BME280;3343;42.896;23.912;2023-05-23T04:24:21;72722.06;;;-145.80;66.65
6615;BME280;3343;42.896;23.912;2023-05-23T04:26:48;72756.16;;;-145.80;69.13
6615;BME280;3343;42.896;23.912;2023-05-23T04:29:15;72784.22;;;-145.80;68.45
6615;BME280;3343;42.896;23.912;2023-05-23T04:31:42;72794.25;;;-145.80;68.52
6615;BME280;3343;42.896;23.912;2023-05-23T04:34:10;72772.19;;;-145.80;68.52
6615;BME280;3343;42.896;23.912;2023-05-23T04:36:37;72760.16;;;-145.80;68.24
6615;BME280;3343;42.896;23.912;2023-05-23T04:39:06;72698.00;;;-145.80;67.44
6615;BME280;3343;42.896;23.912;2023-05-23T04:41:32;72675.94;;;-145.80;67.06
6615;BME280;3343;42.896;23.912;2023-05-23T04:44:00;72617.78;;;-145.80;66.80
6615;BME280;3343;42.896;23.912;2023-05-23T04:46:27;72549.59;;;-145.80;66.25
6615;BME280;3343;42.896;23.912;2023-05-23T04:48:54;72503.47;;;-145.80;65.88
6615;BME280;3343;42.896;23.912;2023-05-23T04:51:23;72439.31;;;-145.80;63.76
6615;BME280;3343;42.896;23.912;2023-05-23T04:53:50;72419.25;;;-145.80;62.79
6615;BME280;3343;42.896;23.912;2023-05-23T04:56:18;72397.22;;;-145.80;62.24
6615;BME280;3343;42.896;23.912;2023-05-23T04:58:46;72359.13;;;-145.80;62.50
6615;BME280;3343;42.896;23.912;2023-05-23T05:01:13;72359.13;;;-145.80;60.46
6615;BME280;3343;42.896;23.912;2023-05-23T05:03:40;72429.28;;;-145.80;59.89
6615;BME280;3343;42.896;23.912;2023-05-23T05:06:07;72399.22;;;-145.80;62.87
6615;BME280;3343;42.896;23.912;2023-05-23T05:08:34;72371.16;;;-145.80;60.24
6615;BME280;3343;42.896;23.912;2023-05-23T05:11:01;72385.19;;;-145.80;60.90
6615;BME280;3343;42.896;23.912;2023-05-23T05:13:30;72373.16;;;-145.80;61.62
6615;BME280;3343;42.896;23.912;2023-05-23T05:15:58;72333.03;;;-145.80;59.95
6615;BME280;3343;42.896;23.912;2023-05-23T05:18:25;72371.16;;;-145.80;60.27
6615;BME280;3343;42.896;23.912;2023-05-23T05:20:52;72367.13;;;-145.80;62.05
6615;BME280;3343;42.896;23.912;2023-05-23T05:23:24;72355.09;;;-145.80;62.40
6615;BME280;3343;42.896;23.912;2023-05-23T05:25:53;72298.97;;;-145.80;62.26
6615;BME280;3343;42.896;23.912;2023-05-23T05:28:21;72357.09;;;-145.80;60.96
6615;BME280;3343;42.896;23.912;2023-05-23T05:30:49;72395.22;;;-145.80;62.85
6615;BME280;3343;42.896;23.912;2023-05-23T05:33:18;72395.22;;;-145.80;63.23
6615;BME280;3343;42.896;23.912;2023-05-23T05:35:48;72335.06;;;-145.80;61.64
6615;BME280;3343;42.896;23.912;2023-05-23T05:38:15;72329.03;;;-145.80;61.90
6615;BME280;3343;42.896;23.912;2023-05-23T05:40:42;72335.06;;;-145.80;61.64
6615;BME280;3343;42.896;23.912;2023-05-23T05:43:09;72317.00;;;-145.80;61.33
6615;BME280;3343;42.896;23.912;2023-05-23T05:45:36;72294.94;;;-145.80;60.17
6615;BME280;3343;42.896;23.912;2023-05-23T05:48:05;72232.78;;;-145.80;59.05
6615;BME280;3343;42.896;23.912;2023-05-23T05:50:32;72238.81;;;-145.80;58.50
6615;BME280;3343;42.896;23.912;2023-05-23T05:52:59;72224.78;;;-145.80;58.09
6615;BME280;3343;42.896;23.912;2023-05-23T05:55:26;72232.78;;;-145.80;58.18
6615;BME280;3343;42.896;23.912;2023-05-23T05:57:53;72232.78;;;-145.80;57.14
6615;BME280;3343;42.896;23.912;2023-05-23T06:00:20;72278.91;;;-145.80;57.58
6615;BME280;3343;42.896;23.912;2023-05-23T06:02:47;72262.88;;;-145.80;61.33
6615;BME280;3343;42.896;23.912;2023-05-23T06:05:17;72166.63;;;-145.80;60.15
6615;BME280;3343;42.896;23.912;2023-05-23T06:07:45;72158.59;;;-145.80;59.12
6615;BME280;3343;42.896;23.912;2023-05-23T06:10:13;72106.47;;;-145.80;55.84
6615;BME280;3343;42.896;23.912;2023-05-23T06:12:40;72140.56;;;-145.80;53.97
6615;BME280;3343;42.896;23.912;2023-05-23T06:15:08;72108.47;;;-145.80;57.29
6615;BME280;3343;42.896;23.912;2023-05-23T06:17:35;72102.47;;;-145.80;54.10
6615;BME280;3343;42.896;23.912;2023-05-23T06:20:02;72104.47;;;-145.80;54.02
6615;BME280;3343;42.896;23.912;2023-05-23T06:22:30;72050.34;;;-145.80;56.89
6615;BME280;3343;42.896;23.912;2023-05-23T06:24:57;72036.31;;;-145.80;53.51
6615;BME280;3343;42.896;23.912;2023-05-23T06:27:24;72036.31;;;-145.80;53.60
6615;BME280;3343;42.896;23.912;2023-05-23T06:29:51;72002.22;;;-145.80;56.29
6615;BME280;3343;42.896;23.912;2023-05-23T06:32:18;71958.09;;;-145.80;53.73
6615;BME280;3343;42.896;23.912;2023-05-23T06:34:45;71958.09;;;-145.80;55.06
6615;BME280;3343;42.896;23.912;2023-05-23T06:37:12;71916.00;;;-145.80;56.14
6615;BME280;3343;42.896;23.912;2023-05-23T06:39:40;71849.84;;;-145.80;53.68
6615;BME280;3343;42.896;23.912;2023-05-23T06:42:08;71809.75;;;-145.80;51.74
6615;BME280;3343;42.896;23.912;2023-05-23T06:44:35;71847.84;;;-145.80;52.14
6615;BME280;3343;42.896;23.912;2023-05-23T06:47:02;71809.75;;;-145.80;51.01
6615;BME280;3343;42.896;23.912;2023-05-23T06:49:28;71761.63;;;-145.80;53.14
6615;BME280;3343;42.896;23.912;2023-05-23T06:51:55;71821.78;;;-145.80;51.32
6615;BME280;3343;42.896;23.912;2023-05-23T06:54:22;71795.72;;;-145.80;53.67
6615;BME280;3343;42.896;23.912;2023-05-23T06:56:50;71781.69;;;-145.80;50.58
6615;BME280;3343;42.896;23.912;2023-05-23T06:59:18;71773.66;;;-145.80;51.49
6615;BME280;3343;42.896;23.912;2023-05-23T07:01:44;71795.72;;;-145.80;51.68
6615;BME280;3343;42.896;23.912;2023-05-23T07:04:11;71847.84;;;-145.80;51.97
6615;BME280;3343;42.896;23.912;2023-05-23T07:06:38;71817.78;;;-145.80;49.61
6615;BME280;3343;42.896;23.912;2023-05-23T07:09:05;71765.66;;;-145.80;52.96
6615;BME280;3343;42.896;23.912;2023-05-23T07:11:32;71775.66;;;-145.80;49.65
6615;BME280;3343;42.896;23.912;2023-05-23T07:14:01;71735.56;;;-145.80;50.55
6615;BME280;3343;42.896;23.912;2023-05-23T07:16:28;71695.47;;;-145.80;51.95
6615;BME280;3343;42.896;23.912;2023-05-23T07:18:55;71697.47;;;-145.80;51.67
6615;BME280;3343;42.896;23.912;2023-05-23T07:21:22;71669.41;;;-145.80;52.35
6615;BME280;3343;42.896;23.912;2023-05-23T07:23:49;71717.53;;;-145.80;49.26
6615;BME280;3343;42.896;23.912;2023-05-23T07:26:16;71665.41;;;-145.80;48.22
6615;BME280;3343;42.896;23.912;2023-05-23T07:28:42;71665.41;;;-145.80;47.23
6615;BME280;3343;42.896;23.912;2023-05-23T07:31:11;71661.41;;;-145.80;48.07
6615;BME280;3343;42.896;23.912;2023-05-23T07:33:38;71679.44;;;-145.80;46.17
6615;BME280;3343;42.896;23.912;2023-05-23T07:36:05;71731.56;;;-145.80;48.49
6615;BME280;3343;42.896;23.912;2023-05-23T07:38:32;71797.72;;;-145.80;49.89
6615;BME280;3343;42.896;23.912;2023-05-23T07:40:59;71771.66;;;-145.80;49.49
6615;BME280;3343;42.896;23.912;2023-05-23T07:43:26;71813.75;;;-145.80;50.36
6615;BME280;3343;42.896;23.912;2023-05-23T07:45:54;71739.59;;;-145.80;52.81
6615;BME280;3343;42.896;23.912;2023-05-23T07:48:22;71681.44;;;-145.80;49.80
6615;BME280;3343;42.896;23.912;2023-05-23T07:50:52;71693.47;;;-145.80;49.80
6615;BME280;3343;42.896;23.912;2023-05-23T07:53:19;71789.69;;;-145.80;49.48
6615;BME280;3343;42.896;23.912;2023-05-23T07:55:47;71769.66;;;-145.80;51.05
6615;BME280;3343;42.896;23.912;2023-05-23T07:58:13;71779.69;;;-145.80;49.88
6615;BME280;3343;42.896;23.912;2023-05-23T08:00:40;71781.69;;;-145.80;50.68
6615;BME280;3343;42.896;23.912;2023-05-23T08:03:08;71717.53;;;-145.80;50.19
6615;BME280;3343;42.896;23.912;2023-05-23T08:05:37;71681.44;;;-145.80;43.97
6615;BME280;3343;42.896;23.912;2023-05-23T08:08:04;71665.41;;;-145.80;42.41
6615;BME280;3343;42.896;23.912;2023-05-23T08:10:31;71607.28;;;-145.80;44.61
6615;BME280;3343;42.896;23.912;2023-05-23T08:12:58;71549.13;;;-145.80;42.76
6615;BME280;3343;42.896;23.912;2023-05-23T08:15:28;71613.28;;;-145.80;43.50
6615;BME280;3343;42.896;23.912;2023-05-23T08:17:55;71571.19;;;-145.80;41.79
6615;BME280;3343;42.896;23.912;2023-05-23T08:20:23;71517.06;;;-145.80;38.65
6615;BME280;3343;42.896;23.912;2023-05-23T08:22:57;71456.91;;;-145.80;40.17
6615;BME280;3343;42.896;23.912;2023-05-23T08:25:24;71442.88;;;-145.80;37.32
6615;BME280;3343;42.896;23.912;2023-05-23T08:27:55;71495.00;;;-145.80;38.13
6615;BME280;3343;42.896;23.912;2023-05-23T08:30:22;71428.84;;;-145.80;39.94
6615;BME280;3343;42.896;23.912;2023-05-23T08:32:50;71388.75;;;-145.80;35.46
6615;BME280;3343;42.896;23.912;2023-05-23T08:35:18;71328.63;;;-145.80;38.02
6615;BME280;3343;42.896;23.912;2023-05-23T08:37:44;71320.59;;;-145.80;33.96
6615;BME280;3343;42.896;23.912;2023-05-23T08:40:18;71316.59;;;-145.80;34.38
6615;BME280;3343;42.896;23.912;2023-05-23T08:42:46;71450.91;;;-145.80;37.10
6615;BME280;3343;42.896;23.912;2023-05-23T08:45:13;71446.91;;;-145.80;38.42
6615;BME280;3343;42.896;23.912;2023-05-23T08:47:41;71444.91;;;-145.80;38.38
6615;BME280;3343;42.896;23.912;2023-05-23T08:50:11;71537.09;;;-145.80;41.12
6615;BME280;3343;42.896;23.912;2023-05-23T08:52:43;71509.03;;;-145.80;40.58
6615;BME280;3343;42.896;23.912;2023-05-23T08:55:11;71436.88;;;-145.80;42.23
6615;BME280;3343;42.896;23.912;2023-05-23T08:57:40;71342.66;;;-145.80;38.38
6615;BME280;3343;42.896;23.912;2023-05-23T09:00:10;71290.53;;;-145.80;37.03
6615;BME280;3343;42.896;23.912;2023-05-23T09:02:40;71246.44;;;-145.80;36.15
6615;BME280;3343;42.896;23.912;2023-05-23T09:05:09;71262.47;;;-145.80;36.29
6615;BME280;3343;42.896;23.912;2023-05-23T09:07:36;71272.50;;;-145.80;34.66
6615;BME280;3343;42.896;23.912;2023-05-23T09:10:05;71356.69;;;-145.80;36.63
6615;BME280;3343;42.896;23.912;2023-05-23T09:12:33;71310.59;;;-145.80;36.51
6615;BME280;3343;42.896;23.912;2023-05-23T09:15:04;71220.38;;;-145.80;34.35
6615;BME280;3343;42.896;23.912;2023-05-23T09:17:31;71200.34;;;-145.80;34.62
6615;BME280;3343;42.896;23.912;2023-05-23T09:19:58;71242.44;;;-145.80;32.50
6615;BME280;3343;42.896;23.912;2023-05-23T09:22:25;71320.59;;;-145.80;32.40
6615;BME280;3343;42.896;23.912;2023-05-23T09:24:54;71440.88;;;-145.80;32.62
6615;BME280;3343;42.896;23.912;2023-05-23T09:27:21;71505.03;;;-145.80;34.95
6615;BME280;3343;42.896;23.912;2023-05-23T09:29:48;71497.00;;;-145.80;34.02
6615;BME280;3343;42.896;23.912;2023-05-23T09:32:19;71444.91;;;-145.80;33.53
6615;BME280;3343;42.896;23.912;2023-05-23T09:34:57;71527.09;;;-145.80;33.55
6615;BME280;3343;42.896;23.912;2023-05-23T09:37:28;71511.03;;;-145.80;36.71
6615;BME280;3343;42.896;23.912;2023-05-23T09:39:56;71414.81;;;-145.80;35.73
6615;BME280;3343;42.896;23.912;2023-05-23T09:42:24;71501.03;;;-145.80;35.53
6615;BME280;3343;42.896;23.912;2023-05-23T09:44:52;71370.72;;;-145.80;35.27
6615;BME280;3343;42.896;23.912;2023-05-23T09:47:21;71412.81;;;-145.80;31.18
6615;BME280;3343;42.896;23.912;2023-05-23T09:49:48;71472.97;;;-145.80;32.02
6615;BME280;3343;42.896;23.912;2023-05-23T09:52:15;71489.00;;;-145.80;36.29
6615;BME280;3343;42.896;23.912;2023-05-23T09:54:44;71495.00;;;-145.80;34.45
6615;BME280;3343;42.896;23.912;2023-05-23T09:57:13;71535.09;;;-145.80;34.68
6615;BME280;3343;42.896;23.912;2023-05-23T09:59:41;71605.25;;;-145.80;35.95
6615;BME280;3343;42.896;23.912;2023-05-23T10:02:11;71685.44;;;-145.80;32.58
6615;BME280;3343;42.896;23.912;2023-05-23T10:04:40;71747.59;;;-145.80;33.63
6615;BME280;3343;42.896;23.912;2023-05-23T10:07:12;71749.59;;;-145.80;35.19
6615;BME280;3343;42.896;23.912;2023-05-23T10:09:46;71737.56;;;-145.80;37.12
6615;BME280;3343;42.896;23.912;2023-05-23T10:12:41;71673.44;;;-145.80;35.30
6615;BME280;3343;42.896;23.912;2023-05-23T10:15:12;71627.31;;;-145.80;36.10
6615;BME280;3343;42.896;23.912;2023-05-23T10:17:50;71591.22;;;-145.80;33.61
6615;BME280;3343;42.896;23.912;2023-05-23T10:20:23;71517.06;;;-145.80;34.78
6615;BME280;3343;42.896;23.912;2023-05-23T10:22:50;71565.16;;;-145.80;32.12
6615;BME280;3343;42.896;23.912;2023-05-23T10:25:18;71621.31;;;-145.80;33.15
6615;BME280;3343;42.896;23.912;2023-05-23T10:27:47;71557.16;;;-145.80;32.50
6615;BME280;3343;42.896;23.912;2023-05-23T10:30:15;71468.94;;;-145.80;36.31
6615;BME280;3343;42.896;23.912;2023-05-23T10:32:43;71332.63;;;-145.80;35.03
6615;BME280;3343;42.896;23.912;2023-05-23T10:35:16;71320.59;;;-145.80;33.09
6615;BME280;3343;42.896;23.912;2023-05-23T10:37:54;71340.66;;;-145.80;31.47
6615;BME280;3343;42.896;23.912;2023-05-23T10:40:30;71358.69;;;-145.80;31.39
6615;BME280;3343;42.896;23.912;2023-05-23T10:43:04;71292.53;;;-145.80;31.47
6615;BME280;3343;42.896;23.912;2023-05-23T10:45:39;71260.47;;;-145.80;32.82
6615;BME280;3343;42.896;23.912;2023-05-23T10:48:19;71340.66;;;-145.80;31.22
6615;BME280;3343;42.896;23.912;2023-05-23T10:51:01;71304.56;;;-145.80;29.94
6615;BME280;3343;42.896;23.912;2023-05-23T10:53:31;71382.75;;;-145.80;31.61
6615;BME280;3343;42.896;23.912;2023-05-23T10:56:00;71416.84;;;-145.80;31.33
6615;BME280;3343;42.896;23.912;2023-05-23T10:58:29;71316.59;;;-145.80;31.55
6615;BME280;3343;42.896;23.912;2023-05-23T11:00:59;71240.44;;;-145.80;30.80
6615;BME280;3343;42.896;23.912;2023-05-23T11:03:30;71218.38;;;-145.80;31.74
6615;BME280;3343;42.896;23.912;2023-05-23T11:05:58;71262.47;;;-145.80;30.22
6615;BME280;3343;42.896;23.912;2023-05-23T11:08:25;71362.72;;;-145.80;30.87
6615;BME280;3343;42.896;23.912;2023-05-23T11:10:58;71348.69;;;-145.80;30.68
6615;BME280;3343;42.896;23.912;2023-05-23T11:13:55;71436.88;;;-145.80;29.84
6615;BME280;3343;42.896;23.912;2023-05-23T11:16:26;71460.94;;;-145.80;31.09
6615;BME280;3343;42.896;23.912;2023-05-23T11:19:20;71468.94;;;-145.80;30.33
6615;BME280;3343;42.896;23.912;2023-05-23T11:21:49;71489.00;;;-145.80;30.25
6615;BME280;3343;42.896;23.912;2023-05-23T11:24:16;71555.16;;;-145.80;29.29
6615;BME280;3343;42.896;23.912;2023-05-23T11:26:52;71428.84;;;-145.80;29.38
6615;BME280;3343;42.896;23.912;2023-05-23T11:29:21;71376.75;;;-145.80;29.26
6615;BME280;3343;42.896;23.912;2023-05-23T11:31:48;71364.72;;;-145.80;29.74
6615;BME280;3343;42.896;23.912;2023-05-23T11:34:16;71354.69;;;-145.80;29.10
6615;BME280;3343;42.896;23.912;2023-05-23T11:36:43;71466.94;;;-145.80;29.84
6615;BME280;3343;42.896;23.912;2023-05-23T11:39:12;71525.06;;;-145.80;29.74
6615;BME280;3343;42.896;23.912;2023-05-23T11:41:40;71509.03;;;-145.80;29.62
6615;BME280;3343;42.896;23.912;2023-05-23T11:44:12;71509.03;;;-145.80;31.51
6615;BME280;3343;42.896;23.912;2023-05-23T11:46:39;71511.03;;;-145.80;32.07
6615;BME280;3343;42.896;23.912;2023-05-23T11:49:10;71460.94;;;-145.80;30.74
6615;BME280;3343;42.896;23.912;2023-05-23T11:51:37;71515.06;;;-145.80;30.98
6615;BME280;3343;42.896;23.912;2023-05-23T11:54:04;71559.16;;;-145.80;31.43
6615;BME280;3343;42.896;23.912;2023-05-23T11:56:31;71533.09;;;-145.80;30.85
6615;BME280;3343;42.896;23.912;2023-05-23T11:59:04;71499.00;;;-145.80;29.95
6615;BME280;3343;42.896;23.912;2023-05-23T12:01:35;71511.03;;;-145.80;30.00
6615;BME280;3343;42.896;23.912;2023-05-23T12:04:08;71404.81;;;-145.80;30.34
6615;BME280;3343;42.896;23.912;2023-05-23T12:06:37;71350.69;;;-145.80;29.41
6615;BME280;3343;42.896;23.912;2023-05-23T12:09:05;71316.59;;;-145.80;29.19
6615;BME280;3343;42.896;23.912;2023-05-23T12:11:32;71338.66;;;-145.80;30.43
6615;BME280;3343;42.896;23.912;2023-05-23T12:13:59;71334.66;;;-145.80;30.67
6615;BME280;3343;42.896;23.912;2023-05-23T12:16:32;71440.88;;;-145.80;29.41
6615;BME280;3343;42.896;23.912;2023-05-23T12:19:01;71418.84;;;-145.80;29.77
6615;BME280;3343;42.896;23.912;2023-05-23T12:21:40;71326.63;;;-145.80;30.18
6615;BME280;3343;42.896;23.912;2023-05-23T12:24:14;71334.66;;;-145.80;30.25
6615;BME280;3343;42.896;23.912;2023-05-23T12:26:49;71354.69;;;-145.80;27.97
6615;BME280;3343;42.896;23.912;2023-05-23T12:29:20;71398.78;;;-145.80;29.12
6615;BME280;3343;42.896;23.912;2023-05-23T12:31:49;71489.00;;;-145.80;29.57
6615;BME280;3343;42.896;23.912;2023-05-23T12:34:18;71468.94;;;-145.80;30.78
6615;BME280;3343;42.896;23.912;2023-05-23T12:36:46;71426.84;;;-145.80;28.96
6615;BME280;3343;42.896;23.912;2023-05-23T12:39:14;71402.78;;;-145.80;29.43
6615;BME280;3343;42.896;23.912;2023-05-23T12:41:41;71378.75;;;-145.80;28.95
6615;BME280;3343;42.896;23.912;2023-05-23T12:44:09;71414.81;;;-145.80;29.65
6615;BME280;3343;42.896;23.912;2023-05-23T12:46:36;71446.91;;;-145.80;29.18
6615;BME280;3343;42.896;23.912;2023-05-23T12:49:04;71378.75;;;-145.80;29.31
6615;BME280;3343;42.896;23.912;2023-05-23T12:51:31;71414.81;;;-145.80;29.86
6615;BME280;3343;42.896;23.912;2023-05-23T12:53:58;71420.84;;;-145.80;29.92
6615;BME280;3343;42.896;23.912;2023-05-23T12:56:25;71354.69;;;-145.80;29.36
6615;BME280;3343;42.896;23.912;2023-05-23T12:58:52;71352.69;;;-145.80;29.17